sensor_id;sensor_type;location;lat;lon;timestamp;P1;durP1;ratioP1;P2;durP2;ratioP2
59207;SDS011;44977;53.132;6.408;2022-10-03T00:03:29;15.68;;;3.60;;
59207;SDS011;44977;53.132;6.408;2022-10-03T00:14:20;12.65;;;2.65;;
59207;SDS011;44977;53.132;6.408;2022-10-03T00:30:25;12.23;;;2.70;;
59207;SDS011;44977;53.132;6.408;2022-10-03T00:35:54;13.13;;;2.70;;
59207;SDS011;44977;53.132;6.408;2022-10-03T00:46:47;13.82;;;2.80;;
59207;SDS011;44977;53.132;6.408;2022-10-03T00:52:14;14.68;;;3.00;;
59207;SDS011;44977;53.132;6.408;2022-10-03T01:08:02;14.18;;;2.80;;
59207;SDS011;44977;53.132;6.408;2022-10-03T01:28:59;14.02;;;3.00;;
59207;SDS011;44977;53.132;6.408;2022-10-03T01:40:16;12.98;;;3.05;;
59207;SDS011;44977;53.132;6.408;2022-10-03T01:45:30;12.45;;;3.28;;
59207;SDS011;44977;53.132;6.408;2022-10-03T01:50:52;12.65;;;2.90;;
59207;SDS011;44977;53.132;6.408;2022-10-03T01:56:11;12.48;;;2.60;;
59207;SDS011;44977;53.132;6.408;2022-10-03T02:01:45;13.23;;;2.40;;
59207;SDS011;44977;53.132;6.408;2022-10-03T02:12:22;12.90;;;2.58;;
59207;SDS011;44977;53.132;6.408;2022-10-03T02:17:47;12.65;;;3.08;;
59207;SDS011;44977;53.132;6.408;2022-10-03T02:22:53;14.80;;;2.90;;
59207;SDS011;44977;53.132;6.408;2022-10-03T03:06:16;13.18;;;3.03;;
59207;SDS011;44977;53.132;6.408;2022-10-03T03:16:54;10.80;;;2.72;;
59207;SDS011;44977;53.132;6.408;2022-10-03T03:27:42;12.88;;;3.15;;
59207;SDS011;44977;53.132;6.408;2022-10-03T03:38:35;12.80;;;2.80;;
59207;SDS011;44977;53.132;6.408;2022-10-03T03:49:50;13.23;;;3.30;;
59207;SDS011;44977;53.132;6.408;2022-10-03T03:55:04;14.13;;;2.72;;
59207;SDS011;44977;53.132;6.408;2022-10-03T04:28:02;11.98;;;2.58;;
59207;SDS011;44977;53.132;6.408;2022-10-03T04:33:22;12.65;;;2.40;;
59207;SDS011;44977;53.132;6.408;2022-10-03T04:49:44;11.73;;;2.92;;
59207;SDS011;44977;53.132;6.408;2022-10-03T04:55:02;11.45;;;2.60;;
59207;SDS011;44977;53.132;6.408;2022-10-03T05:01:05;10.32;;;2.58;;
59207;SDS011;44977;53.132;6.408;2022-10-03T05:10:57;12.13;;;3.40;;
59207;SDS011;44977;53.132;6.408;2022-10-03T05:16:34;13.40;;;2.85;;
59207;SDS011;44977;53.132;6.408;2022-10-03T05:21:46;11.70;;;2.97;;
59207;SDS011;44977;53.132;6.408;2022-10-03T05:27:13;9.93;;;2.53;;
59207;SDS011;44977;53.132;6.408;2022-10-03T05:37:55;9.73;;;2.75;;
59207;SDS011;44977;53.132;6.408;2022-10-03T05:43:17;7.88;;;2.40;;
59207;SDS011;44977;53.132;6.408;2022-10-03T05:48:46;9.90;;;2.60;;
59207;SDS011;44977;53.132;6.408;2022-10-03T06:16:02;11.25;;;2.90;;
59207;SDS011;44977;53.132;6.408;2022-10-03T06:21:27;9.40;;;2.80;;
59207;SDS011;44977;53.132;6.408;2022-10-03T07:00:19;11.77;;;3.75;;
59207;SDS011;44977;53.132;6.408;2022-10-03T07:22:00;13.13;;;3.20;;
59207;SDS011;44977;53.132;6.408;2022-10-03T07:33:25;13.35;;;3.08;;
59207;SDS011;44977;53.132;6.408;2022-10-03T07:44:32;13.43;;;3.38;;
59207;SDS011;44977;53.132;6.408;2022-10-03T07:49:48;11.02;;;2.80;;
59207;SDS011;44977;53.132;6.408;2022-10-03T08:22:36;11.73;;;2.60;;
59207;SDS011;44977;53.132;6.408;2022-10-03T08:32:54;8.68;;;1.90;;
59207;SDS011;44977;53.132;6.408;2022-10-03T08:38:23;11.98;;;2.55;;
59207;SDS011;44977;53.132;6.408;2022-10-03T08:48:55;11.68;;;2.22;;
59207;SDS011;44977;53.132;6.408;2022-10-03T09:16:34;10.60;;;2.20;;
59207;SDS011;44977;53.132;6.408;2022-10-03T09:53:47;8.45;;;1.55;;
59207;SDS011;44977;53.132;6.408;2022-10-03T10:40:25;7.25;;;1.50;;
59207;SDS011;44977;53.132;6.408;2022-10-03T10:45:58;10.00;;;2.00;;
59207;SDS011;44977;53.132;6.408;2022-10-03T10:51:41;9.32;;;1.67;;
59207;SDS011;44977;53.132;6.408;2022-10-03T10:57:18;8.80;;;1.77;;
59207;SDS011;44977;53.132;6.408;2022-10-03T11:29:51;7.35;;;1.58;;
59207;SDS011;44977;53.132;6.408;2022-10-03T11:40:23;7.28;;;1.52;;
59207;SDS011;44977;53.132;6.408;2022-10-03T11:50:50;9.77;;;1.67;;
59207;SDS011;44977;53.132;6.408;2022-10-03T12:12:03;10.65;;;2.00;;
59207;SDS011;44977;53.132;6.408;2022-10-03T12:17:47;10.63;;;1.63;;
59207;SDS011;44977;53.132;6.408;2022-10-03T12:22:58;7.53;;;1.48;;
59207;SDS011;44977;53.132;6.408;2022-10-03T12:28:23;7.05;;;1.50;;
59207;SDS011;44977;53.132;6.408;2022-10-03T12:33:32;6.97;;;1.48;;
59207;SDS011;44977;53.132;6.408;2022-10-03T12:55:26;9.90;;;2.13;;
59207;SDS011;44977;53.132;6.408;2022-10-03T13:05:52;7.05;;;1.30;;
59207;SDS011;44977;53.132;6.408;2022-10-03T13:11:07;9.77;;;1.70;;
59207;SDS011;44977;53.132;6.408;2022-10-03T13:16:31;7.68;;;1.63;;
59207;SDS011;44977;53.132;6.408;2022-10-03T13:32:13;6.55;;;1.65;;
59207;SDS011;44977;53.132;6.408;2022-10-03T13:37:20;8.75;;;1.65;;
59207;SDS011;44977;53.132;6.408;2022-10-03T13:42:36;6.80;;;1.42;;
59207;SDS011;44977;53.132;6.408;2022-10-03T13:47:49;8.52;;;1.70;;
59207;SDS011;44977;53.132;6.408;2022-10-03T14:25:08;5.90;;;1.30;;
59207;SDS011;44977;53.132;6.408;2022-10-03T14:41:21;8.40;;;1.42;;
59207;SDS011;44977;53.132;6.408;2022-10-03T14:46:32;6.90;;;1.50;;
59207;SDS011;44977;53.132;6.408;2022-10-03T14:51:39;8.43;;;1.70;;
59207;SDS011;44977;53.132;6.408;2022-10-03T14:56:56;7.68;;;2.20;;
59207;SDS011;44977;53.132;6.408;2022-10-03T15:01:58;6.28;;;1.50;;
59207;SDS011;44977;53.132;6.408;2022-10-03T15:07:16;6.50;;;1.40;;
59207;SDS011;44977;53.132;6.408;2022-10-03T15:12:31;6.35;;;1.20;;
59207;SDS011;44977;53.132;6.408;2022-10-03T15:17:43;8.43;;;1.50;;
59207;SDS011;44977;53.132;6.408;2022-10-03T15:22:52;7.35;;;1.50;;
59207;SDS011;44977;53.132;6.408;2022-10-03T15:27:57;7.20;;;1.65;;
59207;SDS011;44977;53.132;6.408;2022-10-03T15:33:09;7.97;;;1.60;;
59207;SDS011;44977;53.132;6.408;2022-10-03T15:38:21;6.90;;;1.40;;
59207;SDS011;44977;53.132;6.408;2022-10-03T15:43:26;8.13;;;1.55;;
59207;SDS011;44977;53.132;6.408;2022-10-03T15:48:32;9.23;;;1.90;;
59207;SDS011;44977;53.132;6.408;2022-10-03T15:53:33;6.20;;;1.55;;
59207;SDS011;44977;53.132;6.408;2022-10-03T15:58:37;5.93;;;1.80;;
59207;SDS011;44977;53.132;6.408;2022-10-03T16:04:18;8.75;;;2.10;;
59207;SDS011;44977;53.132;6.408;2022-10-03T16:20:20;7.90;;;2.10;;
59207;SDS011;44977;53.132;6.408;2022-10-03T16:25:24;8.95;;;2.83;;
59207;SDS011;44977;53.132;6.408;2022-10-03T16:30:27;8.10;;;2.67;;
59207;SDS011;44977;53.132;6.408;2022-10-03T16:40:47;9.98;;;2.90;;
59207;SDS011;44977;53.132;6.408;2022-10-03T16:45:59;9.83;;;2.60;;
59207;SDS011;44977;53.132;6.408;2022-10-03T16:51:03;7.38;;;2.33;;
59207;SDS011;44977;53.132;6.408;2022-10-03T16:56:17;9.45;;;2.20;;
59207;SDS011;44977;53.132;6.408;2022-10-03T17:01:26;8.57;;;2.20;;
59207;SDS011;44977;53.132;6.408;2022-10-03T17:06:35;10.77;;;3.58;;
59207;SDS011;44977;53.132;6.408;2022-10-03T17:11:38;8.95;;;2.53;;
59207;SDS011;44977;53.132;6.408;2022-10-03T17:16:45;9.77;;;2.38;;
59207;SDS011;44977;53.132;6.408;2022-10-03T17:22:12;10.63;;;3.17;;
59207;SDS011;44977;53.132;6.408;2022-10-03T17:32:37;8.65;;;3.00;;
59207;SDS011;44977;53.132;6.408;2022-10-03T17:42:52;8.13;;;2.60;;
59207;SDS011;44977;53.132;6.408;2022-10-03T17:48:08;8.90;;;2.90;;
59207;SDS011;44977;53.132;6.408;2022-10-03T17:53:14;9.65;;;3.50;;
59207;SDS011;44977;53.132;6.408;2022-10-03T17:58:20;10.57;;;4.63;;
59207;SDS011;44977;53.132;6.408;2022-10-03T18:03:25;9.93;;;4.35;;
59207;SDS011;44977;53.132;6.408;2022-10-03T18:08:35;10.13;;;4.50;;
59207;SDS011;44977;53.132;6.408;2022-10-03T18:13:42;11.23;;;4.87;;
59207;SDS011;44977;53.132;6.408;2022-10-03T18:19:01;9.70;;;5.72;;
59207;SDS011;44977;53.132;6.408;2022-10-03T18:24:11;17.40;;;11.30;;
59207;SDS011;44977;53.132;6.408;2022-10-03T18:29:31;21.35;;;13.80;;
59207;SDS011;44977;53.132;6.408;2022-10-03T18:39:45;16.95;;;9.93;;
59207;SDS011;44977;53.132;6.408;2022-10-03T18:44:46;13.02;;;6.35;;
59207;SDS011;44977;53.132;6.408;2022-10-03T18:50:32;12.23;;;6.07;;
59207;SDS011;44977;53.132;6.408;2022-10-03T18:55:25;10.85;;;6.18;;
59207;SDS011;44977;53.132;6.408;2022-10-03T19:00:30;16.65;;;7.10;;
59207;SDS011;44977;53.132;6.408;2022-10-03T19:05:59;10.27;;;5.97;;
59207;SDS011;44977;53.132;6.408;2022-10-03T19:11:18;12.23;;;6.55;;
59207;SDS011;44977;53.132;6.408;2022-10-03T19:16:55;9.50;;;6.10;;
59207;SDS011;44977;53.132;6.408;2022-10-03T19:22:20;11.18;;;5.25;;
59207;SDS011;44977;53.132;6.408;2022-10-03T19:28:00;12.30;;;5.10;;
59207;SDS011;44977;53.132;6.408;2022-10-03T19:33:15;9.55;;;4.60;;
59207;SDS011;44977;53.132;6.408;2022-10-03T19:38:26;13.30;;;6.80;;
59207;SDS011;44977;53.132;6.408;2022-10-03T19:43:33;14.77;;;6.70;;
59207;SDS011;44977;53.132;6.408;2022-10-03T19:54:32;13.20;;;7.90;;
59207;SDS011;44977;53.132;6.408;2022-10-03T19:59:43;13.80;;;8.40;;
59207;SDS011;44977;53.132;6.408;2022-10-03T20:04:50;12.20;;;7.43;;
59207;SDS011;44977;53.132;6.408;2022-10-03T20:09:56;13.52;;;7.50;;
59207;SDS011;44977;53.132;6.408;2022-10-03T20:15:01;14.45;;;7.85;;
59207;SDS011;44977;53.132;6.408;2022-10-03T20:20:16;12.45;;;7.13;;
59207;SDS011;44977;53.132;6.408;2022-10-03T20:25:23;11.52;;;7.60;;
59207;SDS011;44977;53.132;6.408;2022-10-03T20:35:51;17.02;;;10.95;;
59207;SDS011;44977;53.132;6.408;2022-10-03T20:41:06;16.63;;;10.43;;
59207;SDS011;44977;53.132;6.408;2022-10-03T20:51:21;13.90;;;8.70;;
59207;SDS011;44977;53.132;6.408;2022-10-03T20:56:25;16.50;;;10.57;;
59207;SDS011;44977;53.132;6.408;2022-10-03T21:01:33;15.68;;;10.23;;
59207;SDS011;44977;53.132;6.408;2022-10-03T21:06:55;22.58;;;12.18;;
59207;SDS011;44977;53.132;6.408;2022-10-03T21:12:09;15.90;;;9.57;;
59207;SDS011;44977;53.132;6.408;2022-10-03T21:17:23;14.43;;;7.78;;
59207;SDS011;44977;53.132;6.408;2022-10-03T21:22:26;14.02;;;7.30;;
59207;SDS011;44977;53.132;6.408;2022-10-03T21:27:30;14.38;;;6.85;;
59207;SDS011;44977;53.132;6.408;2022-10-03T21:58:35;16.58;;;8.70;;
59207;SDS011;44977;53.132;6.408;2022-10-03T22:03:42;13.73;;;8.50;;
59207;SDS011;44977;53.132;6.408;2022-10-03T22:08:51;14.32;;;9.10;;
59207;SDS011;44977;53.132;6.408;2022-10-03T22:14:07;14.32;;;8.35;;
59207;SDS011;44977;53.132;6.408;2022-10-03T22:19:49;16.70;;;8.20;;
59207;SDS011;44977;53.132;6.408;2022-10-03T22:25:15;18.92;;;8.43;;
59207;SDS011;44977;53.132;6.408;2022-10-03T22:30:27;15.05;;;8.23;;
59207;SDS011;44977;53.132;6.408;2022-10-03T22:35:35;16.60;;;8.57;;
59207;SDS011;44977;53.132;6.408;2022-10-03T22:40:46;16.95;;;8.75;;
59207;SDS011;44977;53.132;6.408;2022-10-03T22:45:50;16.63;;;9.65;;
59207;SDS011;44977;53.132;6.408;2022-10-03T22:50:54;16.83;;;9.45;;
59207;SDS011;44977;53.132;6.408;2022-10-03T22:55:56;16.08;;;9.43;;
59207;SDS011;44977;53.132;6.408;2022-10-03T23:00:58;18.48;;;8.88;;
59207;SDS011;44977;53.132;6.408;2022-10-03T23:11:22;13.35;;;8.93;;
59207;SDS011;44977;53.132;6.408;2022-10-03T23:22:08;15.18;;;8.93;;
59207;SDS011;44977;53.132;6.408;2022-10-03T23:27:20;16.40;;;9.30;;
59207;SDS011;44977;53.132;6.408;2022-10-03T23:32:49;14.50;;;8.55;;
59207;SDS011;44977;53.132;6.408;2022-10-03T23:37:53;15.00;;;8.50;;
59207;SDS011;44977;53.132;6.408;2022-10-03T23:42:56;14.95;;;8.35;;
59207;SDS011;44977;53.132;6.408;2022-10-03T23:48:08;15.67;;;8.63;;
59207;SDS011;44977;53.132;6.408;2022-10-03T23:53:16;14.52;;;8.30;;
59207;SDS011;44977;53.132;6.408;2022-10-03T23:58:28;17.85;;;8.05;;
